Time;durP1;ratioP1;P1;durP2;ratioP2;P2;SDS_P1;SDS_P2;PMS_P1;PMS_P2;Temp;Humidity;BMP_temperature;BMP_pressure;BME280_temperature;BME280_humidity;BME280_pressure;Samples;Min_cycle;Max_cycle;Signal;HPM_P1;HPM_P2
2021/03/28 00:01:39;;;;;;;36.77;27.97;;;;;;;7.10;49.57;101173.18;1638464;87;21705;-82
2021/03/28 00:04:10;;;;;;;37.83;29.30;;;;;;;7.01;49.96;101175.38;1606322;88;21180;-86
2021/03/28 00:06:49;;;;;;;37.13;26.80;;;;;;;6.91;50.33;101173.22;1560996;90;21237;-85
2021/03/28 00:09:25;;;;;;;33.47;26.40;;;;;;;6.82;50.59;101178.42;1583720;89;21264;-86
2021/03/28 00:12:12;;;;;;;36.57;28.70;;;;;;;6.60;50.69;101147.78;1580971;89;21136;-86
2021/03/28 00:14:46;;;;;;;38.10;31.17;;;;;;;6.70;50.77;101172.92;1636579;86;21994;-87
2021/03/28 00:17:34;;;;;;;33.37;28.03;;;;;;;6.66;50.80;101172.86;1609235;87;21188;-83
2021/03/28 00:20:21;;;;;;;36.53;27.53;;;;;;;6.60;51.09;101178.23;1615032;87;21165;-85
2021/03/28 00:23:10;;;;;;;37.60;28.10;;;;;;;6.50;51.38;101175.25;1616180;87;21078;-85
2021/03/28 00:26:03;;;;;;;36.90;27.07;;;;;;;6.38;51.93;101183.34;1639223;86;21592;-86
2021/03/28 00:29:14;;;;;;;37.43;27.43;;;;;;;6.26;52.24;101174.38;1790091;79;23955;-84
2021/03/28 00:32:05;;;;;;;43.10;30.30;;;;;;;6.11;52.42;101174.78;1773548;78;21654;-85
2021/03/28 00:34:40;;;;;;;41.70;30.83;;;;;;;5.98;52.65;101179.52;1729570;80;21114;-83
2021/03/28 00:37:15;;;;;;;43.50;32.00;;;;;;;5.87;53.05;101185.73;1708767;81;21208;-82
2021/03/28 00:40:03;;;;;;;48.83;33.47;;;;;;;5.79;53.22;101181.61;1722755;82;21221;-82
2021/03/28 00:42:48;;;;;;;;;;;;;;;5.73;53.41;101184.32;1711418;82;21254;-81
2021/03/28 00:45:30;;;;;;;49.43;34.03;;;;;;;4.81;53.57;101050.48;1705141;81;20200;-81
2021/03/28 00:48:10;;;;;;;50.13;32.80;;;;;;;5.57;54.11;101184.82;1716736;81;21667;-81
2021/03/28 00:50:43;;;;;;;47.50;31.53;;;;;;;5.54;54.19;101183.78;1720239;83;21241;-81
2021/03/28 00:53:34;;;;;;;52.27;35.17;;;;;;;5.54;54.41;101186.89;1713068;83;21228;-81
2021/03/28 00:56:17;;;;;;;59.90;41.30;;;;;;;5.49;54.76;101191.28;1720058;81;21066;-83
2021/03/28 00:58:58;;;;;;;90.87;56.20;;;;;;;5.43;54.83;101186.53;1716787;81;21166;-82
2021/03/28 01:02:14;;;;;;;88.47;55.00;;;;;;;5.43;54.80;101190.50;1719140;81;21126;-81
2021/03/28 01:04:55;;;;;;;78.57;52.03;;;;;;;5.45;54.80;101181.45;1710140;81;21233;-79
2021/03/28 01:07:42;;;;;;;77.40;50.47;;;;;;;5.47;54.77;101189.25;1720877;81;21849;-81
2021/03/28 01:10:45;;;;;;;67.73;47.07;;;;;;;5.49;54.94;101183.34;1711848;81;21344;-83
2021/03/28 01:13:49;;;;;;;76.70;46.80;;;;;;;5.49;55.04;101186.48;1718197;82;21416;-85
2021/03/28 01:16:55;;;;;;;78.50;51.77;;;;;;;5.46;55.20;101186.24;1705906;82;21207;-83
2021/03/28 01:19:42;;;;;;;;;;;;;;;5.45;55.22;101189.38;1713295;82;21219;-81
2021/03/28 01:22:24;;;;;;;83.63;53.17;;;;;;;5.45;55.36;101185.91;1720043;82;20853;-81
2021/03/28 01:25:09;;;;;;;83.40;53.77;;;;;;;5.36;55.46;101185.39;1667681;84;21244;-82
2021/03/28 01:27:56;;;;;;;85.50;55.97;;;;;;;4.99;55.69;101132.59;1714482;83;21545;-82
2021/03/28 01:30:35;;;;;;;92.47;58.67;;;;;;;5.28;55.82;101182.59;1705352;82;21370;-81
2021/03/28 01:33:07;;;;;;;99.80;60.27;;;;;;;4.92;56.02;101133.27;1696478;82;21188;-80
2021/03/28 01:35:57;;;;;;;90.80;59.13;;;;;;;5.20;56.00;101184.08;1697700;83;21231;-80
2021/03/28 01:38:30;;;;;;;98.17;62.47;;;;;;;5.18;56.03;101186.02;1719166;82;21218;-80
2021/03/28 01:41:07;;;;;;;99.17;64.17;;;;;;;5.16;56.09;101181.81;1691059;82;21690;-81
2021/03/28 01:43:54;;;;;;;96.60;61.20;;;;;;;5.14;56.23;101186.40;1711027;82;21886;-79
2021/03/28 01:46:56;;;;;;;100.53;59.53;;;;;;;5.10;56.31;101185.83;1655824;84;21146;-79
2021/03/28 01:50:04;;;;;;;89.83;59.73;;;;;;;5.03;56.60;101183.38;1665180;84;21631;-81
2021/03/28 01:52:52;;;;;;;95.93;60.30;;;;;;;4.93;56.92;101189.08;1660193;84;21197;-82
2021/03/28 01:55:51;;;;;;;89.87;57.75;;;;;;;4.85;57.25;101187.92;1660152;83;21298;-82
2021/03/28 01:58:38;;;;;;;99.33;63.47;;;;;;;4.81;57.37;101189.64;1680836;84;21193;-81
2021/03/28 02:01:23;;;;;;;99.83;64.33;;;;;;;4.75;57.54;101202.06;1660139;84;21091;-81
2021/03/28 02:03:55;;;;;;;101.03;64.13;;;;;;;4.67;57.80;101196.93;1663997;84;21415;-79
2021/03/28 02:06:34;;;;;;;99.27;60.40;;;;;;;4.58;58.38;101197.70;1661788;84;21232;-82
2021/03/28 02:09:25;;;;;;;93.20;56.90;;;;;;;4.50;58.53;101201.44;1660355;82;21182;-79
2021/03/28 02:12:20;;;;;;;87.33;58.37;;;;;;;4.41;58.45;101204.38;1669384;84;21076;-80
2021/03/28 02:15:37;;;;;;;87.37;58.07;;;;;;;4.33;58.64;101196.73;1640780;85;21594;-79
2021/03/28 02:18:39;;;;;;;88.27;57.78;;;;;;;4.21;59.56;101199.41;1650010;85;21170;-79
2021/03/28 02:21:14;;;;;;;86.80;57.67;;;;;;;4.21;59.56;101199.41;1652070;85;21179;-80
2021/03/28 02:23:57;;;;;;;102.17;62.83;;;;;;;4.14;59.42;101195.59;1666562;83;21234;-82
2021/03/28 02:26:39;;;;;;;95.47;61.47;;;;;;;4.12;59.40;101196.69;1665552;83;21659;-81
2021/03/28 02:29:14;;;;;;;103.20;64.10;;;;;;;4.08;59.62;101200.06;1675164;83;21157;-82
2021/03/28 02:31:59;;;;;;;100.45;64.32;;;;;;;4.05;59.81;101198.98;1684322;83;21168;-81
2021/03/28 02:35:05;;;;;;;98.47;66.40;;;;;;;4.04;59.85;101203.42;1673412;83;21281;-82
2021/03/28 02:37:56;;;;;;;105.37;67.03;;;;;;;4.15;59.79;101203.05;1658738;84;21530;-81
2021/03/28 02:40:48;;;;;;;97.53;65.87;;;;;;;4.37;59.55;101202.10;1651976;84;21139;-81
2021/03/28 02:43:44;;;;;;;95.43;68.17;;;;;;;4.46;59.47;101202.20;1646340;85;21686;-81
2021/03/28 02:46:39;;;;;;;106.87;71.37;;;;;;;4.50;59.43;101200.12;1674448;83;21044;-82
2021/03/28 02:49:41;;;;;;;110.87;71.20;;;;;;;4.55;59.38;101195.80;1666383;83;21167;-79
2021/03/28 02:52:22;;;;;;;104.70;70.87;;;;;;;4.61;59.20;101196.59;1649693;85;21145;-81
2021/03/28 02:55:20;;;;;;;109.87;71.80;;;;;;;4.64;59.04;101199.81;1628239;87;21216;-81
2021/03/28 02:58:03;;;;;;;;;;;;;;;4.68;58.92;101201.72;1683653;83;21522;-79
2021/03/28 03:00:38;;;;;;;99.00;69.87;;;;;;;4.69;58.97;101195.48;1661043;85;20308;-78
2021/03/28 03:03:41;;;;;;;99.60;71.87;;;;;;;4.65;59.02;101192.72;1681871;83;21815;-79
2021/03/28 03:07:00;;;;;;;101.43;71.33;;;;;;;4.66;59.01;101196.56;1677134;83;21324;-79
2021/03/28 03:09:39;;;;;;;98.77;69.57;;;;;;;4.68;58.95;101197.27;1675471;83;21179;-79
2021/03/28 03:12:23;;;;;;;103.30;71.30;;;;;;;4.68;59.01;101197.76;1676305;85;21056;-81
2021/03/28 03:15:19;;;;;;;106.77;72.53;;;;;;;4.68;59.06;101195.12;1690674;83;21193;-80
2021/03/28 03:18:28;;;;;;;99.97;71.03;;;;;;;4.69;59.01;101203.41;1683716;83;21183;-80
2021/03/28 03:21:50;;;;;;;106.00;72.20;;;;;;;4.65;59.07;101200.64;1695329;83;21213;-79
2021/03/28 03:24:41;;;;;;;;;;;;;;;4.60;59.17;101197.08;1679406;84;21088;-80
2021/03/28 03:27:39;;;;;;;97.17;66.33;;;;;;;4.58;59.32;101199.02;1690069;83;20184;-80
2021/03/28 03:30:32;;;;;;;100.92;67.58;;;;;;;4.54;59.60;101204.66;1646758;85;21255;-80
2021/03/28 03:33:28;;;;;;;95.67;66.47;;;;;;;4.51;59.64;101207.58;1627963;87;21204;-82
2021/03/28 03:36:12;;;;;;;95.97;68.37;;;;;;;4.44;59.74;101207.23;1639710;85;21161;-80
2021/03/28 03:39:21;;;;;;;99.37;69.40;;;;;;;4.34;59.87;101209.80;1686595;83;21621;-81
2021/03/28 03:42:25;;;;;;;101.93;66.93;;;;;;;4.29;60.06;101211.98;1680060;83;21290;-82
2021/03/28 03:45:57;;;;;;;100.47;70.87;;;;;;;4.29;60.29;101204.06;1781303;78;22506;-81
2021/03/28 03:48:49;;;;;;;102.27;68.00;;;;;;;4.23;60.34;101201.44;1680660;84;21229;-84
2021/03/28 03:52:02;;;;;;;99.30;69.20;;;;;;;4.35;60.27;101208.86;1668719;84;21224;-82
2021/03/28 03:54:52;;;;;;;102.30;71.80;;;;;;;4.53;60.03;101205.16;1650541;85;21215;-80
2021/03/28 03:57:45;;;;;;;100.13;70.47;;;;;;;4.59;60.05;101203.81;1616600;83;21282;-80
2021/03/28 04:00:20;;;;;;;106.63;73.03;;;;;;;4.63;59.98;101207.86;1597336;88;21817;-83
2021/03/28 04:02:56;;;;;;;100.70;70.00;;;;;;;4.66;59.85;101209.77;1635968;87;21364;-80
2021/03/28 04:05:47;;;;;;;98.90;68.97;;;;;;;4.71;59.95;101206.76;1604586;87;21215;-80
2021/03/28 04:08:45;;;;;;;100.07;69.73;;;;;;;4.76;59.87;101213.79;1618005;87;21287;-80
2021/03/28 04:11:40;;;;;;;99.67;72.00;;;;;;;4.79;59.76;101206.94;1602201;87;21630;-79
2021/03/28 04:14:16;;;;;;;104.43;69.90;;;;;;;4.83;59.79;101211.48;1625336;86;21216;-80
2021/03/28 04:17:08;;;;;;;107.30;71.47;;;;;;;4.97;59.62;101211.62;1644708;86;21879;-81
2021/03/28 04:20:11;;;;;;;106.57;72.13;;;;;;;5.22;59.42;101215.67;1630775;86;21535;-81
2021/03/28 04:23:19;;;;;;;103.20;71.30;;;;;;;5.54;58.77;101226.09;1616098;84;21638;-80
2021/03/28 04:26:22;;;;;;;109.83;72.67;;;;;;;5.80;57.28;101164.28;1801362;77;23130;-82
2021/03/28 04:28:58;;;;;;;106.20;72.93;;;;;;;6.11;56.61;101173.95;1774312;79;21645;-82
2021/03/28 04:31:40;;;;;;;99.70;70.67;;;;;;;6.87;55.39;101228.33;1755100;81;21749;-81
2021/03/28 04:34:18;;;;;;;104.23;76.27;;;;;;;7.30;54.31;101220.83;1720368;82;21515;-82
2021/03/28 04:37:19;;;;;;;104.57;73.50;;;;;;;7.70;53.00;101217.84;1725833;83;21206;-82
2021/03/28 04:40:04;;;;;;;104.50;74.17;;;;;;;8.02;52.43;101221.84;1716538;81;21814;-82
2021/03/28 04:42:52;;;;;;;108.50;75.30;;;;;;;8.43;51.62;101222.78;1706275;82;21189;-83
2021/03/28 04:45:42;;;;;;;105.67;76.25;;;;;;;8.83;50.70;101222.26;1719915;82;21099;-84
2021/03/28 04:48:34;;;;;;;102.53;73.80;;;;;;;9.25;49.51;101221.55;1733289;81;21194;-83
2021/03/28 04:51:48;;;;;;;100.07;75.13;;;;;;;9.61;48.32;101223.22;1708307;81;21650;-85
2021/03/28 04:54:32;;;;;;;102.93;75.70;;;;;;;9.86;47.00;101226.28;1731522;81;21186;-86
2021/03/28 04:57:47;;;;;;;104.23;73.97;;;;;;;10.07;46.42;101223.17;1744418;81;21250;-85
2021/03/28 05:00:34;;;;;;;95.40;72.03;;;;;;;10.29;45.86;101224.89;1725550;81;21833;-85
2021/03/28 05:03:44;;;;;;;99.87;71.70;;;;;;;9.54;45.11;101066.81;1744062;81;21159;-86
2021/03/28 05:06:37;;;;;;;96.60;71.80;;;;;;;10.79;44.61;101224.42;1735629;81;21202;-89
2021/03/28 05:09:33;;;;;;;96.27;70.03;;;;;;;11.01;44.12;101228.23;1727370;81;21175;-87
2021/03/28 05:12:27;;;;;;;96.87;72.73;;;;;;;11.14;43.37;101227.72;1760895;78;20997;-90
2021/03/28 05:15:23;;;;;;;94.73;72.73;;;;;;;11.29;42.81;101216.66;1805800;76;22957;-91
2021/03/28 05:18:19;;;;;;;101.87;75.40;;;;;;;11.27;43.03;101222.68;1784019;78;21256;-86
2021/03/28 05:21:34;;;;;;;93.10;70.77;;;;;;;11.40;42.77;101221.63;1773598;78;21458;-86
2021/03/28 05:24:47;;;;;;;99.37;72.27;;;;;;;11.62;42.50;101221.39;1741422;77;21226;-84
2021/03/28 05:27:56;;;;;;;91.60;70.00;;;;;;;11.97;41.79;101221.91;1700876;83;21649;-84
2021/03/28 05:30:50;;;;;;;92.33;70.37;;;;;;;12.36;41.16;101222.84;1738427;81;21345;-86
2021/03/28 05:33:51;;;;;;;89.50;73.60;;;;;;;12.81;40.32;101213.11;1733580;78;21192;-87
2021/03/28 05:36:49;;;;;;;93.27;73.73;;;;;;;13.22;39.27;101218.88;1731063;81;21183;-87
2021/03/28 05:40:04;;;;;;;93.73;71.07;;;;;;;13.53;38.57;101215.70;1728138;81;21148;-88
2021/03/28 05:42:56;;;;;;;81.53;66.05;;;;;;;13.79;37.88;101221.39;1729183;81;21327;-86
2021/03/28 05:45:37;;;;;;;86.82;69.35;;;;;;;14.05;37.46;101219.19;1721802;78;21091;-88
2021/03/28 05:48:56;;;;;;;81.05;66.53;;;;;;;14.29;37.31;101219.34;1724053;81;21249;-88
2021/03/28 05:51:32;;;;;;;69.40;56.95;;;;;;;14.52;36.84;101225.84;1730142;81;21651;-82
2021/03/28 05:54:32;;;;;;;83.47;62.37;;;;;;;14.57;35.93;101230.16;1731998;81;21186;-83
2021/03/28 05:57:44;;;;;;;75.03;59.08;;;;;;;14.70;36.17;101226.25;1727746;81;21212;-84
2021/03/28 06:00:46;;;;;;;70.97;58.20;;;;;;;14.90;35.72;101229.59;1735828;81;21274;-82
2021/03/28 06:03:43;;;;;;;58.90;48.90;;;;;;;15.17;35.43;101231.44;1719237;81;21194;-83
2021/03/28 06:06:52;;;;;;;57.23;47.27;;;;;;;15.43;34.27;101227.78;1733169;81;21213;-74
2021/03/28 06:10:03;;;;;;;52.25;45.08;;;;;;;15.63;34.03;101226.00;1730225;81;21176;-78
2021/03/28 06:12:54;;;;;;;52.03;43.50;;;;;;;15.94;33.40;101230.92;1694306;79;21139;-84
2021/03/28 06:15:35;;;;;;;51.83;42.15;;;;;;;16.17;32.91;101232.95;1686100;84;21236;-83
2021/03/28 06:18:24;;;;;;;53.28;45.00;;;;;;;16.30;31.58;101216.84;1762412;79;23580;-83
2021/03/28 06:21:43;;;;;;;54.88;42.80;;;;;;;15.90;32.52;101226.16;1810468;77;23090;-85
2021/03/28 06:24:22;;;;;;;50.58;42.55;;;;;;;15.68;32.68;101229.45;1682487;81;21102;-84
2021/03/28 06:27:47;;;;;;;57.00;42.65;;;;;;;15.61;32.64;101224.03;1668424;83;21148;-85
2021/03/28 06:30:41;;;;;;;49.83;43.10;;;;;;;15.61;32.97;101230.75;1648625;84;21841;-84
2021/03/28 06:33:28;;;;;;;49.53;40.85;;;;;;;15.74;32.91;101226.80;1617591;85;21234;-86
2021/03/28 06:36:34;;;;;;;50.67;43.10;;;;;;;15.85;32.12;101224.58;1630496;84;21191;-86
2021/03/28 06:39:40;;;;;;;50.20;41.58;;;;;;;15.85;32.35;101223.23;1612587;86;21945;-85
2021/03/28 06:42:29;;;;;;;54.20;40.52;;;;;;;15.92;32.31;101221.41;1626691;86;21343;-85
2021/03/28 06:45:41;;;;;;;59.00;41.95;;;;;;;15.94;32.09;101214.78;1794631;77;22812;-86
2021/03/28 06:48:37;;;;;;;48.58;38.40;;;;;;;15.87;32.18;101214.45;1790858;80;21305;-87
2021/03/28 06:51:52;;;;;;;47.45;35.68;;;;;;;15.81;31.75;101219.30;1786562;80;21171;-82
2021/03/28 06:55:07;;;;;;;50.52;36.33;;;;;;;15.56;32.05;101214.42;1789037;78;22174;-87
2021/03/28 06:59:44;;;;;;;44.53;36.48;;;;;;;14.64;32.84;101218.16;1735273;79;24299;-86
2021/03/28 07:02:40;;;;;;;44.98;35.38;;;;;;;14.12;33.66;101216.08;1696378;82;21067;-84
2021/03/28 07:05:33;;;;;;;41.88;31.65;;;;;;;13.67;34.55;101212.16;1690649;83;21178;-86
2021/03/28 07:08:31;;;;;;;43.63;32.20;;;;;;;13.22;34.98;101224.23;1694228;83;21826;-85
2021/03/28 07:11:34;;;;;;;50.55;34.30;;;;;;;12.88;35.75;101218.55;1897853;74;23012;-86
2021/03/28 07:14:37;;;;;;;44.45;33.73;;;;;;;12.69;36.49;101219.38;1757298;79;21206;-86
2021/03/28 07:17:37;;;;;;;43.90;31.37;;;;;;;12.48;37.03;101213.37;1776321;79;23125;-86
2021/03/28 07:20:24;;;;;;;41.83;34.00;;;;;;;12.39;37.18;101218.45;1739360;80;21602;-85
2021/03/28 07:23:28;;;;;;;44.65;31.12;;;;;;;12.24;37.27;101212.56;1710041;81;21078;-87
2021/03/28 07:26:34;;;;;;;46.35;33.25;;;;;;;12.20;37.80;101206.39;1669374;84;21233;-86
2021/03/28 07:29:31;;;;;;;40.63;29.77;;;;;;;12.27;37.77;101208.69;1670906;80;21255;-86
2021/03/28 07:32:17;;;;;;;41.45;32.25;;;;;;;12.25;37.68;101200.84;1668604;81;21169;-88
2021/03/28 07:35:17;;;;;;;39.78;32.38;;;;;;;12.27;38.16;101202.83;1646406;82;21236;-87
2021/03/28 07:38:09;;;;;;;37.30;28.52;;;;;;;12.34;37.96;101202.11;1641784;86;21218;-85
2021/03/28 07:41:10;;;;;;;44.00;29.57;;;;;;;12.37;37.74;101202.59;1653677;86;21187;-88
2021/03/28 07:44:08;;;;;;;34.50;27.43;;;;;;;12.53;37.77;101195.47;1639423;86;21636;-86
2021/03/28 07:47:03;;;;;;;37.05;27.65;;;;;;;12.63;37.18;101198.70;1645283;86;21182;-86
2021/03/28 07:49:59;;;;;;;35.30;27.62;;;;;;;12.77;37.10;101194.39;1643483;86;21332;-87
2021/03/28 07:53:11;;;;;;;35.03;26.95;;;;;;;12.80;37.26;101196.72;1640476;86;21414;-84
2021/03/28 07:56:19;;;;;;;32.23;26.12;;;;;;;12.86;36.74;101191.97;1661704;82;21639;-89
2021/03/28 07:59:04;;;;;;;32.20;24.32;;;;;;;12.24;36.49;101088.27;1641789;85;21641;-80
2021/03/28 08:01:56;;;;;;;34.03;26.10;;;;;;;12.97;36.38;101196.05;1694984;82;21243;-82
2021/03/28 08:04:54;;;;;;;27.95;23.83;;;;;;;13.00;36.44;101192.50;1712489;82;21197;-82
2021/03/28 08:07:50;;;;;;;28.92;24.12;;;;;;;13.01;36.63;101183.44;1716176;82;21208;-84
2021/03/28 08:10:53;;;;;;;29.25;24.15;;;;;;;13.12;36.23;101177.33;1823249;77;23266;-87
2021/03/28 08:14:04;;;;;;;29.63;23.43;;;;;;;12.98;36.05;101181.15;1689451;78;21289;-82
2021/03/28 08:17:16;;;;;;;29.87;23.30;;;;;;;12.84;36.31;101188.64;1676916;83;21803;-83
2021/03/28 08:20:21;;;;;;;30.70;23.20;;;;;;;12.71;36.64;101183.09;1670737;83;21286;-82
2021/03/28 08:23:26;;;;;;;30.72;23.87;;;;;;;12.69;36.31;101183.27;1692650;82;21704;-83
2021/03/28 08:26:02;;;;;;;29.85;21.75;;;;;;;12.79;36.31;101180.33;1705734;82;21640;-82
2021/03/28 08:29:05;;;;;;;30.95;22.48;;;;;;;12.95;36.19;101177.49;1707687;82;21214;-80
2021/03/28 08:31:58;;;;;;;27.35;22.77;;;;;;;13.15;36.24;101180.98;1704208;82;21261;-85
2021/03/28 08:34:50;;;;;;;31.52;24.05;;;;;;;13.37;35.91;101173.88;1685992;82;21032;-82
2021/03/28 08:37:41;;;;;;;28.55;23.70;;;;;;;13.43;35.59;101171.81;1682073;82;21333;-83
2021/03/28 08:40:35;;;;;;;25.95;21.80;;;;;;;13.38;35.16;101171.02;1695259;84;21171;-90
2021/03/28 08:43:41;;;;;;;25.60;20.95;;;;;;;13.34;35.40;101169.73;1649414;84;21144;-80
2021/03/28 08:46:38;;;;;;;32.70;22.65;;;;;;;13.33;35.47;101161.36;1652882;84;21216;-81
2021/03/28 08:49:22;;;;;;;21.90;17.48;;;;;;;13.32;35.38;101162.39;1656952;85;21648;-81
2021/03/28 08:52:28;;;;;;;22.17;18.05;;;;;;;13.36;34.25;101156.98;1657302;85;21320;-80
2021/03/28 08:55:54;;;;;;;22.35;16.07;;;;;;;13.34;34.68;101160.88;1632784;86;21364;-78
2021/03/28 08:58:34;;;;;;;23.20;17.30;;;;;;;13.36;34.19;101148.95;1635792;86;21172;-80
2021/03/28 09:01:25;;;;;;;23.05;17.92;;;;;;;13.42;34.29;101162.10;1603431;86;21093;-81
2021/03/28 09:04:13;;;;;;;24.27;17.73;;;;;;;13.52;34.17;101152.43;1655197;85;21321;-81
2021/03/28 09:07:22;;;;;;;21.73;17.40;;;;;;;13.56;33.93;101148.35;1627421;86;21200;-82
2021/03/28 09:10:31;;;;;;;22.25;15.83;;;;;;;13.55;34.05;101152.06;1628209;87;21268;-80
2021/03/28 09:13:48;;;;;;;19.87;16.07;;;;;;;13.53;33.51;101153.59;1669792;84;21093;-80
2021/03/28 09:17:01;;;;;;;22.58;16.85;;;;;;;13.48;33.92;101145.28;1674576;84;21235;-81
2021/03/28 09:19:57;;;;;;;18.73;15.80;;;;;;;13.59;33.93;101144.79;1645342;85;21181;-82
2021/03/28 09:22:51;;;;;;;20.60;15.90;;;;;;;13.75;33.26;101134.86;1654822;84;21763;-81
2021/03/28 09:25:38;;;;;;;18.05;16.10;;;;;;;13.88;32.99;101142.22;1640755;84;21197;-81
2021/03/28 09:28:17;;;;;;;16.52;13.58;;;;;;;13.93;32.94;101134.44;1672618;84;21207;-82
2021/03/28 09:31:40;;;;;;;20.10;15.38;;;;;;;13.96;32.27;101131.39;1678029;84;21261;-79
2021/03/28 09:34:43;;;;;;;21.60;16.37;;;;;;;13.98;32.12;101129.34;1658211;84;21303;-82
2021/03/28 09:38:01;;;;;;;22.10;15.28;;;;;;;14.09;32.14;101128.83;1750495;78;23083;-80
2021/03/28 09:40:50;;;;;;;16.17;14.58;;;;;;;14.13;32.19;101127.94;1705080;83;21188;-78
2021/03/28 09:43:31;;;;;;;15.93;13.72;;;;;;;14.30;31.79;101135.20;1700882;82;21160;-81
2021/03/28 09:46:08;;;;;;;16.25;13.75;;;;;;;14.36;31.79;101136.59;1668345;83;21056;-83
2021/03/28 09:49:22;;;;;;;15.48;13.93;;;;;;;14.31;31.91;101133.64;1655285;85;21170;-80
2021/03/28 09:52:22;;;;;;;20.70;14.75;;;;;;;14.29;31.57;101120.12;1652568;85;21188;-82
2021/03/28 09:55:28;;;;;;;15.98;13.80;;;;;;;14.32;31.63;101119.75;1630572;86;21318;-81
2021/03/28 10:01:27;;;;;;;16.37;13.83;;;;;;;14.45;30.82;101113.63;1752237;79;23535;-81
2021/03/28 10:04:30;;;;;;;17.37;13.85;;;;;;;14.33;31.01;101116.84;1705199;83;21333;-82
2021/03/28 10:07:03;;;;;;;20.43;13.53;;;;;;;14.31;31.13;101114.05;1714666;82;21309;-81
2021/03/28 10:09:55;;;;;;;18.62;13.85;;;;;;;14.42;31.19;101096.09;1692049;83;21304;-82
2021/03/28 10:12:52;;;;;;;15.88;14.00;;;;;;;14.50;31.11;101100.48;1695672;81;21055;-82
2021/03/28 10:15:27;;;;;;;15.18;12.93;;;;;;;14.60;31.04;101105.03;1679820;83;21195;-81
2021/03/28 10:18:41;;;;;;;15.30;13.65;;;;;;;14.67;31.43;101103.72;1678007;83;21317;-83
2021/03/28 10:21:20;;;;;;;16.57;13.80;;;;;;;14.74;30.84;101104.59;1676018;83;21206;-82
2021/03/28 10:24:32;;;;;;;15.88;14.38;;;;;;;14.82;30.73;101100.40;1664296;81;21126;-82
2021/03/28 10:27:36;;;;;;;16.52;14.30;;;;;;;14.81;30.69;101090.70;1620540;86;21376;-80
2021/03/28 10:30:45;;;;;;;15.75;13.75;;;;;;;14.72;30.71;101095.39;1658812;85;21228;-82
2021/03/28 10:33:36;;;;;;;15.50;13.30;;;;;;;14.69;30.69;101093.61;1659694;85;21179;-82
2021/03/28 10:36:54;;;;;;;16.70;13.35;;;;;;;14.55;30.94;101093.50;1649222;85;21433;-81
2021/03/28 10:39:33;;;;;;;16.42;13.60;;;;;;;14.54;31.27;101087.83;1633747;85;21174;-82
2021/03/28 10:42:17;;;;;;;15.50;14.03;;;;;;;14.60;31.18;101082.23;1661919;85;21429;-80
2021/03/28 10:45:18;;;;;;;18.05;13.32;;;;;;;14.59;30.99;101086.73;1663928;84;21065;-80
2021/03/28 10:47:59;;;;;;;16.02;14.43;;;;;;;14.63;31.12;101079.12;1617645;84;21261;-81
2021/03/28 10:51:22;;;;;;;16.37;13.95;;;;;;;14.65;31.38;101078.42;1667990;84;21176;-82
2021/03/28 10:54:13;;;;;;;13.98;11.43;;;;;;;14.66;31.16;101084.11;1669901;84;21180;-82
2021/03/28 10:57:11;;;;;;;21.65;13.65;;;;;;;14.62;31.28;101080.17;1662641;84;21045;-82
2021/03/28 11:00:02;;;;;;;16.10;14.43;;;;;;;14.67;31.71;101075.02;1661643;84;21176;-82
2021/03/28 11:02:46;;;;;;;16.48;13.32;;;;;;;14.74;31.32;101073.21;1662524;85;21141;-81
2021/03/28 11:05:43;;;;;;;13.53;12.15;;;;;;;14.66;31.74;101077.92;1658446;85;21152;-82
2021/03/28 11:08:43;;;;;;;15.95;13.08;;;;;;;14.65;31.31;101068.20;1676648;84;21262;-80
2021/03/28 11:11:18;;;;;;;15.75;12.80;;;;;;;14.65;31.53;101068.20;1678029;83;21706;-81
2021/03/28 11:14:13;;;;;;;12.30;10.80;;;;;;;14.69;31.28;101064.09;1655006;85;21295;-81
2021/03/28 11:17:03;;;;;;;14.87;13.53;;;;;;;14.74;30.90;101065.16;1653722;85;21181;-80
2021/03/28 11:20:11;;;;;;;13.50;12.10;;;;;;;14.69;31.37;101057.39;1657846;85;21913;-81
2021/03/28 11:23:16;;;;;;;13.20;11.83;;;;;;;14.64;31.81;101061.20;1639988;84;21599;-81
2021/03/28 11:26:26;;;;;;;14.33;12.93;;;;;;;14.62;31.90;101063.22;1637994;86;21643;-81
2021/03/28 11:29:35;;;;;;;16.05;12.47;;;;;;;14.55;31.93;101057.28;1664827;85;21321;-81
2021/03/28 11:32:23;;;;;;;14.95;12.88;;;;;;;14.55;31.81;101055.94;1635433;86;21941;-81
2021/03/28 11:35:33;;;;;;;14.50;12.53;;;;;;;14.60;32.08;101051.38;1645127;86;21603;-85
2021/03/28 11:38:23;;;;;;;15.18;13.60;;;;;;;14.65;31.94;101058.30;1617326;87;21183;-82
2021/03/28 11:41:15;;;;;;;16.73;14.33;;;;;;;14.63;32.11;101051.48;1629667;86;21212;-80
2021/03/28 11:43:56;;;;;;;14.87;12.95;;;;;;;14.57;32.21;101037.82;1624257;87;21179;-80
2021/03/28 11:46:33;;;;;;;14.10;12.68;;;;;;;14.64;32.04;101040.55;1674034;82;21021;-81
2021/03/28 11:49:06;;;;;;;17.00;13.30;;;;;;;14.68;31.93;101036.44;1671290;84;21174;-79
2021/03/28 11:51:44;;;;;;;20.85;13.90;;;;;;;14.72;32.35;101044.93;1679192;84;21931;-83
2021/03/28 11:54:20;;;;;;;21.93;14.20;;;;;;;14.72;32.30;101035.02;1655750;85;21342;-81
2021/03/28 11:57:07;;;;;;;16.40;14.70;;;;;;;14.63;32.46;101024.66;1672727;82;21583;-82
2021/03/28 11:59:52;;;;;;;15.05;13.03;;;;;;;14.58;32.91;101024.73;1657865;85;21201;-83
2021/03/28 12:02:24;;;;;;;15.93;14.33;;;;;;;14.59;33.14;101019.67;1635649;86;21213;-85
2021/03/28 12:05:02;;;;;;;15.45;14.03;;;;;;;14.66;33.27;101022.92;1640867;85;21301;-83
2021/03/28 12:07:37;;;;;;;14.07;12.53;;;;;;;14.70;33.04;101025.52;1639123;86;22022;-84
2021/03/28 12:10:09;;;;;;;17.25;13.05;;;;;;;14.70;33.00;101025.00;1656052;85;21309;-81
2021/03/28 12:12:51;;;;;;;14.30;12.75;;;;;;;14.72;33.38;101016.75;1618489;86;21144;-81
2021/03/28 12:15:46;;;;;;;16.50;14.35;;;;;;;14.76;33.01;101016.14;1614268;87;21202;-81
2021/03/28 12:18:28;;;;;;;16.37;13.03;;;;;;;14.79;32.78;101006.88;1610587;87;21205;-81
2021/03/28 12:21:08;;;;;;;15.32;13.93;;;;;;;14.78;32.79;101007.38;1627706;87;21196;-81
2021/03/28 12:23:53;;;;;;;14.15;12.00;;;;;;;14.74;32.91;101008.80;1611719;87;21176;-81
2021/03/28 12:26:37;;;;;;;14.60;12.88;;;;;;;14.74;32.36;100994.57;1628149;87;22013;-82
2021/03/28 12:29:13;;;;;;;12.65;11.40;;;;;;;14.75;32.55;100991.69;1597914;87;21195;-81
2021/03/28 12:31:46;;;;;;;14.87;13.32;;;;;;;14.74;32.45;100995.91;1630052;87;21193;-81
2021/03/28 12:34:33;;;;;;;14.28;12.88;;;;;;;14.71;32.72;100985.56;1634656;86;21097;-81
2021/03/28 12:37:12;;;;;;;13.08;11.70;;;;;;;14.70;32.79;100986.61;1645986;86;21758;-81
2021/03/28 12:39:48;;;;;;;14.58;12.43;;;;;;;14.69;33.03;100984.94;1637333;86;21191;-81
2021/03/28 12:42:30;;;;;;;13.80;12.40;;;;;;;14.75;32.89;100984.16;1636922;86;21198;-82
2021/03/28 12:45:16;;;;;;;15.80;12.13;;;;;;;14.83;32.91;100981.30;1628387;86;21600;-80
2021/03/28 12:47:51;;;;;;;;;;;;;;;14.82;31.95;100983.66;1641539;86;21179;-81
2021/03/28 12:50:32;;;;;;;14.35;12.05;;;;;;;14.76;32.29;100985.28;1638150;86;20182;-82
2021/03/28 12:53:17;;;;;;;13.58;12.23;;;;;;;14.72;32.57;100980.53;1639597;86;21218;-81
2021/03/28 12:55:51;;;;;;;13.55;12.05;;;;;;;14.73;32.45;100977.66;1638847;86;21117;-80
2021/03/28 12:58:27;;;;;;;15.05;12.35;;;;;;;14.75;32.42;100974.77;1648220;85;21212;-81
2021/03/28 13:01:02;;;;;;;13.28;12.03;;;;;;;14.73;32.60;100977.66;1629967;86;21111;-81
2021/03/28 13:03:37;;;;;;;13.00;11.80;;;;;;;14.75;32.74;100971.56;1673805;84;21364;-82
2021/03/28 13:06:35;;;;;;;13.53;12.13;;;;;;;14.83;32.73;100977.80;1674251;84;21207;-81
2021/03/28 13:09:18;;;;;;;15.43;13.90;;;;;;;14.91;32.66;100970.38;1673545;84;21312;-80
2021/03/28 13:12:17;;;;;;;14.35;13.05;;;;;;;14.98;32.48;100974.44;1671989;82;21662;-81
2021/03/28 13:14:50;;;;;;;15.45;13.10;;;;;;;15.02;32.46;100968.97;1669830;84;21155;-81